createdAt,value
2022-11-16T00:01:47.500Z,17.63
2022-11-16T00:04:15.222Z,20.27
2022-11-16T00:06:43.371Z,18.45
2022-11-16T00:09:23.626Z,19.00
2022-11-16T00:11:56.456Z,20.15
2022-11-16T00:14:25.939Z,23.48
2022-11-16T00:16:52.854Z,19.50
2022-11-16T00:19:19.893Z,18.98
2022-11-16T00:21:46.960Z,19.20
2022-11-16T00:24:15.874Z,21.55
2022-11-16T00:26:43.176Z,21.92
2022-11-16T00:29:18.985Z,19.77
2022-11-16T00:31:46.644Z,20.23
2022-11-16T00:34:14.493Z,21.13
2022-11-16T00:36:41.669Z,20.38
2022-11-16T00:39:11.958Z,21.25
2022-11-16T00:41:39.256Z,21.38
2022-11-16T00:44:06.901Z,20.23
2022-11-16T00:46:33.988Z,19.80
2022-11-16T00:49:02.308Z,19.13
2022-11-16T00:51:29.990Z,19.70
2022-11-16T00:53:59.198Z,20.52
2022-11-16T00:56:28.285Z,16.92
2022-11-16T00:58:55.280Z,19.48
2022-11-16T01:01:22.771Z,20.60
2022-11-16T01:03:51.419Z,18.92
2022-11-16T01:06:20.475Z,19.25
2022-11-16T01:08:47.432Z,22.75
2022-11-16T01:11:34.387Z,20.65
2022-11-16T01:14:07.792Z,23.50
2022-11-16T01:16:36.461Z,21.38
2022-11-16T01:19:05.090Z,22.40
2022-11-16T01:21:33.077Z,19.90
2022-11-16T01:24:00.264Z,21.58
2022-11-16T01:26:27.535Z,19.20
2022-11-16T01:28:54.665Z,19.90
2022-11-16T01:31:22.038Z,20.25
2022-11-16T01:33:52.026Z,22.50
2022-11-16T01:36:24.023Z,19.73
2022-11-16T01:38:52.236Z,19.20
2022-11-16T01:41:25.537Z,20.05
2022-11-16T01:44:05.863Z,20.95
2022-11-16T01:46:46.405Z,20.48
2022-11-16T01:49:20.572Z,21.30
2022-11-16T01:51:53.464Z,22.15
2022-11-16T01:54:21.186Z,21.33
2022-11-16T01:56:57.216Z,18.50
2022-11-16T01:59:34.078Z,21.55
2022-11-16T02:02:01.995Z,22.20
2022-11-16T02:04:31.191Z,22.50
2022-11-16T02:07:04.632Z,19.88
2022-11-16T02:10:06.260Z,20.98
2022-11-16T02:12:57.479Z,21.63
2022-11-16T02:16:09.315Z,22.50
2022-11-16T02:18:47.615Z,22.00
2022-11-16T02:21:57.063Z,19.73
2022-11-16T02:24:33.531Z,20.60
2022-11-16T02:27:34.474Z,20.33
2022-11-16T02:30:04.090Z,22.88
2022-11-16T02:32:40.114Z,23.45
2022-11-16T02:35:21.116Z,19.85
2022-11-16T02:38:02.862Z,20.33
2022-11-16T02:40:33.186Z,23.52
2022-11-16T02:43:09.663Z,17.40
2022-11-16T02:45:49.924Z,21.98
2022-11-16T02:48:29.087Z,18.90
2022-11-16T02:50:58.274Z,22.20
2022-11-16T02:53:26.158Z,20.88
2022-11-16T02:55:56.510Z,21.10
2022-11-16T02:58:25.958Z,23.63
2022-11-16T03:01:10.334Z,23.08
2022-11-16T03:06:26.751Z,22.52
2022-11-16T03:09:05.902Z,20.33
2022-11-16T03:12:00.491Z,23.17
2022-11-16T03:14:43.340Z,23.52
2022-11-16T03:17:18.846Z,21.08
2022-11-16T03:19:54.179Z,23.70
2022-11-16T03:22:36.398Z,25.17
2022-11-16T03:25:05.014Z,23.75
2022-11-16T03:27:41.867Z,22.02
2022-11-16T03:33:08.982Z,27.35
2022-11-16T03:35:44.426Z,22.52
2022-11-16T03:38:14.651Z,24.90
2022-11-16T03:40:47.002Z,24.05
2022-11-16T03:43:15.504Z,21.50
2022-11-16T03:45:43.412Z,23.25
2022-11-16T03:48:12.313Z,25.27
2022-11-16T03:50:42.686Z,22.27
2022-11-16T03:53:13.086Z,23.33
2022-11-16T03:55:40.057Z,22.23
2022-11-16T03:58:07.625Z,24.38
2022-11-16T04:00:34.806Z,23.38
2022-11-16T04:03:09.403Z,20.13
2022-11-16T04:05:56.230Z,22.90
2022-11-16T04:08:44.310Z,25.48
2022-11-16T04:11:37.936Z,24.52
2022-11-16T04:14:24.573Z,26.77
2022-11-16T04:19:58.252Z,19.52
2022-11-16T04:22:53.449Z,26.20
2022-11-16T04:25:26.379Z,23.27
2022-11-16T04:28:13.698Z,21.63
2022-11-16T04:31:10.352Z,23.40
2022-11-16T04:33:57.889Z,23.90
2022-11-16T04:36:43.735Z,23.45
2022-11-16T04:41:58.246Z,24.45
2022-11-16T04:44:50.951Z,21.70
2022-11-16T04:47:18.305Z,22.45
2022-11-16T04:49:47.206Z,25.00
2022-11-16T04:52:14.358Z,26.25
2022-11-16T04:54:44.867Z,26.05
2022-11-16T04:57:12.904Z,28.33
2022-11-16T04:59:40.092Z,26.48
2022-11-16T05:02:10.652Z,29.00
2022-11-16T05:05:04.863Z,26.88
2022-11-16T05:07:33.940Z,28.55
2022-11-16T05:10:08.127Z,28.67
2022-11-16T05:12:35.061Z,29.02
2022-11-16T05:15:07.321Z,26.70
2022-11-16T05:17:34.937Z,25.73
2022-11-16T05:20:24.321Z,32.60
2022-11-16T05:22:58.472Z,31.33
2022-11-16T05:25:34.027Z,37.25
2022-11-16T05:28:05.274Z,31.53
2022-11-16T05:30:34.904Z,28.83
2022-11-16T05:33:04.204Z,31.85
2022-11-16T05:35:34.747Z,28.70
2022-11-16T05:38:02.229Z,27.83
2022-11-16T05:40:33.010Z,25.27
2022-11-16T05:43:01.212Z,22.05
2022-11-16T05:45:32.431Z,24.13
2022-11-16T05:48:01.108Z,22.30
2022-11-16T05:50:28.258Z,24.95
2022-11-16T05:53:12.167Z,23.08
2022-11-16T05:55:40.381Z,24.30
2022-11-16T05:58:09.092Z,20.85
2022-11-16T06:00:36.527Z,25.90
2022-11-16T06:03:04.958Z,22.60
2022-11-16T06:05:40.197Z,23.15
2022-11-16T06:10:37.083Z,21.30
2022-11-16T06:13:05.180Z,22.55
2022-11-16T06:18:17.749Z,23.38
2022-11-16T06:20:44.865Z,23.15
2022-11-16T06:23:12.026Z,20.80
2022-11-16T06:25:39.883Z,22.20
2022-11-16T06:28:08.267Z,24.00
2022-11-16T06:30:36.523Z,22.83
2022-11-16T06:33:06.542Z,23.83
2022-11-16T06:35:33.823Z,23.48
2022-11-16T06:38:02.987Z,23.63
2022-11-16T06:40:30.760Z,27.40
2022-11-16T06:42:59.095Z,23.42
2022-11-16T06:45:27.877Z,24.77
2022-11-16T06:47:57.347Z,26.23
2022-11-16T06:50:24.488Z,30.40
2022-11-16T06:52:54.045Z,28.52
2022-11-16T06:55:23.000Z,29.15
2022-11-16T06:57:50.020Z,26.75
2022-11-16T07:00:18.255Z,27.27
2022-11-16T07:02:46.514Z,28.63
2022-11-16T07:05:16.527Z,27.33
2022-11-16T07:07:45.328Z,28.10
2022-11-16T07:10:13.968Z,25.77
2022-11-16T07:12:42.193Z,29.52
2022-11-16T07:15:09.792Z,29.38
2022-11-16T07:17:41.141Z,28.55
2022-11-16T07:20:08.985Z,32.15
2022-11-16T07:22:39.589Z,30.33
2022-11-16T07:25:07.922Z,32.83
2022-11-16T07:27:36.482Z,33.33
2022-11-16T07:30:05.754Z,30.65
2022-11-16T07:32:57.731Z,29.58
2022-11-16T07:36:14.144Z,29.88
2022-11-16T07:38:41.829Z,31.88
2022-11-16T07:41:19.908Z,29.77
2022-11-16T07:44:01.186Z,33.00
2022-11-16T07:46:48.407Z,35.95
2022-11-16T07:49:18.734Z,35.65
2022-11-16T07:51:51.225Z,32.47
2022-11-16T07:54:38.430Z,34.90
2022-11-16T07:57:05.525Z,38.60
2022-11-16T07:59:33.167Z,32.00
2022-11-16T08:02:01.503Z,33.88
2022-11-16T08:04:28.533Z,34.70
2022-11-16T08:06:55.727Z,31.83
2022-11-16T08:09:23.618Z,38.25
2022-11-16T08:11:54.962Z,34.25
2022-11-16T08:14:23.562Z,33.40
2022-11-16T08:16:53.603Z,31.75
2022-11-16T08:19:20.637Z,30.40
2022-11-16T08:21:50.688Z,33.38
2022-11-16T08:24:18.357Z,37.08
2022-11-16T08:26:45.758Z,38.85
2022-11-16T08:29:15.326Z,42.22
2022-11-16T08:31:47.650Z,38.53
2022-11-16T08:34:20.184Z,45.95
2022-11-16T08:36:55.658Z,41.53
2022-11-16T08:39:28.719Z,43.60
2022-11-16T08:41:56.008Z,50.38
2022-11-16T08:44:24.534Z,44.72
2022-11-16T08:46:56.001Z,49.65
2022-11-16T08:49:33.684Z,43.25
2022-11-16T08:52:02.404Z,51.85
2022-11-16T08:54:31.214Z,55.30
2022-11-16T08:56:58.449Z,54.28
2022-11-16T08:59:25.887Z,49.83
2022-11-16T09:01:56.840Z,53.97
2022-11-16T09:04:24.633Z,49.42
2022-11-16T09:06:54.056Z,50.20
2022-11-16T09:09:23.812Z,49.83
2022-11-16T09:11:54.425Z,51.13
2022-11-16T09:14:23.042Z,54.83
2022-11-16T09:16:50.041Z,58.75
2022-11-16T09:19:18.992Z,58.22
2022-11-16T09:21:46.134Z,53.78
2022-11-16T09:24:13.272Z,53.40
2022-11-16T09:26:40.283Z,54.83
2022-11-16T09:29:07.345Z,53.63
2022-11-16T09:31:34.927Z,58.63
2022-11-16T09:34:02.956Z,54.47
2022-11-16T09:36:30.936Z,60.05
2022-11-16T09:41:52.005Z,58.53
2022-11-16T09:44:44.512Z,54.45
2022-11-16T09:47:35.065Z,59.33
2022-11-16T09:50:04.822Z,71.22
2022-11-16T09:52:46.447Z,64.10
2022-11-16T09:55:25.602Z,64.78
2022-11-16T09:57:56.082Z,66.45
2022-11-16T10:00:25.142Z,60.20
2022-11-16T10:03:07.489Z,60.95
2022-11-16T10:06:03.507Z,63.13
2022-11-16T10:08:51.743Z,57.20
2022-11-16T10:11:48.591Z,64.75
2022-11-16T10:17:04.793Z,67.40
2022-11-16T10:19:35.094Z,64.35
2022-11-16T10:22:15.348Z,68.18
2022-11-16T10:25:00.738Z,63.53
2022-11-16T10:27:47.190Z,65.75
2022-11-16T10:30:19.693Z,61.00
2022-11-16T10:33:10.915Z,55.78
2022-11-16T10:35:58.199Z,65.22
2022-11-16T10:38:31.787Z,53.92
2022-11-16T10:41:16.801Z,58.92
2022-11-16T10:43:45.334Z,63.97
2022-11-16T10:46:16.692Z,62.38
2022-11-16T10:48:48.743Z,63.53
2022-11-16T10:51:15.813Z,60.47
2022-11-16T10:53:44.295Z,63.80
2022-11-16T10:56:26.474Z,54.83
2022-11-16T10:59:14.887Z,65.93
2022-11-16T11:01:50.761Z,60.88
2022-11-16T11:04:25.115Z,62.08
2022-11-16T11:06:55.429Z,62.50
2022-11-16T11:09:34.105Z,66.90
2022-11-16T11:12:34.094Z,67.07
2022-11-16T11:15:06.767Z,80.25
2022-11-16T11:17:36.229Z,73.18
2022-11-16T11:20:05.901Z,82.88
2022-11-16T11:22:35.783Z,77.13
2022-11-16T11:25:03.614Z,70.25
2022-11-16T11:27:35.496Z,75.65
2022-11-16T11:30:04.298Z,71.93
2022-11-16T11:32:35.129Z,72.50
2022-11-16T11:35:05.479Z,71.85
2022-11-16T11:37:39.081Z,66.60
2022-11-16T11:40:22.237Z,75.22
2022-11-16T11:42:53.940Z,75.80
2022-11-16T11:45:24.717Z,71.05
2022-11-16T11:48:01.957Z,69.78
2022-11-16T11:50:53.123Z,71.03
2022-11-16T11:53:57.115Z,68.03
2022-11-16T11:56:26.159Z,67.35
2022-11-16T11:58:54.132Z,70.63
2022-11-16T12:01:59.573Z,59.20
2022-11-16T12:05:08.615Z,60.13
2022-11-16T12:07:50.741Z,61.05
2022-11-16T12:10:43.075Z,62.45
2022-11-16T12:13:32.696Z,62.85
2022-11-16T12:16:38.576Z,56.33
2022-11-16T12:19:57.364Z,54.55
2022-11-16T12:22:33.481Z,53.53
2022-11-16T12:25:25.214Z,50.17
2022-11-16T12:28:04.577Z,47.97
2022-11-16T12:30:39.047Z,51.00
2022-11-16T12:36:17.510Z,51.88
2022-11-16T12:38:49.782Z,44.78
2022-11-16T12:41:49.600Z,41.03
2022-11-16T12:44:40.308Z,43.58
2022-11-16T12:47:19.070Z,42.63
2022-11-16T12:50:08.346Z,46.63
2022-11-16T12:53:01.607Z,42.78
2022-11-16T12:55:57.935Z,41.88
2022-11-16T12:58:49.241Z,37.25
2022-11-16T13:01:43.286Z,40.80
2022-11-16T13:04:19.764Z,36.85
2022-11-16T13:07:00.761Z,38.80
2022-11-16T13:09:36.590Z,33.20
2022-11-16T13:12:08.733Z,42.30
2022-11-16T13:14:46.995Z,34.75
2022-11-16T13:17:19.595Z,35.50
2022-11-16T13:20:04.077Z,33.75
2022-11-16T13:22:34.393Z,35.30
2022-11-16T13:25:31.550Z,37.80
2022-11-16T13:28:07.654Z,36.13
2022-11-16T13:31:09.771Z,32.55
2022-11-16T13:33:51.013Z,31.75
2022-11-16T13:36:46.304Z,34.83
2022-11-16T13:39:21.789Z,35.00
2022-11-16T13:41:52.166Z,32.88
2022-11-16T13:44:20.579Z,33.70
2022-11-16T13:47:12.964Z,31.00
2022-11-16T13:49:49.054Z,29.20
2022-11-16T13:52:24.160Z,30.88
2022-11-16T13:54:59.479Z,31.45
2022-11-16T13:57:35.371Z,32.65
2022-11-16T14:00:02.380Z,28.57
2022-11-16T14:02:35.459Z,30.40
2022-11-16T14:05:06.779Z,29.42
2022-11-16T14:07:35.105Z,29.67
2022-11-16T14:10:06.789Z,29.80
2022-11-16T14:12:54.491Z,32.22
2022-11-16T14:15:26.369Z,30.33
2022-11-16T14:18:09.999Z,25.83
2022-11-16T14:20:59.112Z,27.25
2022-11-16T14:23:51.823Z,27.02
2022-11-16T14:26:46.680Z,26.38
2022-11-16T14:29:23.908Z,26.10
2022-11-16T14:31:56.862Z,28.63
2022-11-16T14:34:40.342Z,28.70
2022-11-16T14:37:17.406Z,22.00
2022-11-16T14:39:45.048Z,22.67
2022-11-16T14:42:38.073Z,21.08
2022-11-16T14:45:33.427Z,23.85
2022-11-16T14:48:05.500Z,21.08
2022-11-16T14:50:40.706Z,24.67
2022-11-16T14:53:14.288Z,20.33
2022-11-16T14:55:43.772Z,20.98
2022-11-16T14:58:19.827Z,21.33
2022-11-16T15:01:02.535Z,19.70
2022-11-16T15:03:42.404Z,17.92
2022-11-16T15:06:10.148Z,20.65
2022-11-16T15:08:38.435Z,19.67
2022-11-16T15:11:13.018Z,16.77
2022-11-16T15:13:45.111Z,18.95
2022-11-16T15:16:18.504Z,17.77
2022-11-16T15:19:02.428Z,17.30
2022-11-16T15:21:31.814Z,15.00
2022-11-16T15:24:28.779Z,15.68
2022-11-16T15:26:46.538Z,13.77
2022-11-16T15:29:17.806Z,15.50
2022-11-16T15:31:45.547Z,12.88
2022-11-16T15:34:15.594Z,15.80
2022-11-16T15:36:42.611Z,10.57
2022-11-16T15:39:21.838Z,14.38
2022-11-16T15:41:52.181Z,14.80
2022-11-16T15:44:22.186Z,11.05
2022-11-16T15:46:53.225Z,10.23
2022-11-16T15:49:38.324Z,11.02
2022-11-16T15:52:05.987Z,9.55
2022-11-16T15:54:54.109Z,11.80
2022-11-16T15:57:23.621Z,14.02
2022-11-16T15:59:55.687Z,12.90
2022-11-16T16:02:29.676Z,8.52
2022-11-16T16:04:56.819Z,8.02
2022-11-16T16:07:41.619Z,8.65
2022-11-16T16:10:25.712Z,7.90
2022-11-16T16:12:55.068Z,7.45
2022-11-16T16:15:36.741Z,8.98
2022-11-16T16:18:11.575Z,8.52
2022-11-16T16:20:38.658Z,7.30
2022-11-16T16:23:11.466Z,6.80
2022-11-16T16:25:39.253Z,7.57
2022-11-16T16:28:06.341Z,7.00
2022-11-16T16:30:34.823Z,6.07
2022-11-16T16:33:02.380Z,6.22
2022-11-16T16:35:29.669Z,6.55
2022-11-16T16:37:59.288Z,6.05
2022-11-16T16:40:27.140Z,5.50
2022-11-16T16:42:56.136Z,5.32
2022-11-16T16:45:37.242Z,5.10
2022-11-16T16:48:05.409Z,6.68
2022-11-16T16:50:32.522Z,4.93
2022-11-16T16:53:00.238Z,5.70
2022-11-16T16:55:27.305Z,5.03
2022-11-16T16:57:57.733Z,5.15
2022-11-16T17:00:25.941Z,5.80
2022-11-16T17:03:02.533Z,4.28
2022-11-16T17:05:58.470Z,4.93
2022-11-16T17:08:51.648Z,4.25
2022-11-16T17:14:58.317Z,3.72
2022-11-16T17:17:56.620Z,3.97
2022-11-16T17:20:42.690Z,5.13
2022-11-16T17:23:39.023Z,4.40
2022-11-16T17:26:20.908Z,4.28
2022-11-16T17:29:31.270Z,5.72
2022-11-16T17:32:22.577Z,4.10
2022-11-16T17:35:21.454Z,5.72
2022-11-16T17:38:00.277Z,4.35
2022-11-16T17:40:57.274Z,3.83
2022-11-16T17:43:31.335Z,4.90
2022-11-16T17:46:38.570Z,5.20
2022-11-16T17:49:30.954Z,5.10
2022-11-16T17:52:05.268Z,5.60
2022-11-16T17:54:47.137Z,5.07
2022-11-16T17:57:53.740Z,4.28
2022-11-16T18:00:30.477Z,3.50
2022-11-16T18:06:31.027Z,5.28
2022-11-16T18:09:38.772Z,4.70
2022-11-16T18:12:18.933Z,3.38
2022-11-16T18:15:26.490Z,3.53
2022-11-16T18:18:45.343Z,4.20
2022-11-16T18:21:54.641Z,3.65
2022-11-16T18:28:30.670Z,3.28
2022-11-16T18:31:20.139Z,4.50
2022-11-16T18:34:15.971Z,3.45
2022-11-16T18:37:01.314Z,3.85
2022-11-16T18:40:33.285Z,3.63
2022-11-16T18:46:35.198Z,3.63
2022-11-16T18:49:47.013Z,3.92
2022-11-16T18:53:12.004Z,4.18
2022-11-16T18:56:16.223Z,3.58
2022-11-16T18:59:05.288Z,4.60
2022-11-16T19:14:14.624Z,3.08
2022-11-16T19:23:48.557Z,4.95
2022-11-16T19:26:50.698Z,5.35
2022-11-16T19:29:40.028Z,4.72
2022-11-16T19:32:52.220Z,4.30
2022-11-16T19:39:00.970Z,4.82
2022-11-16T19:41:40.399Z,3.80
2022-11-16T19:44:17.997Z,3.53
2022-11-16T19:47:15.694Z,6.68
2022-11-16T19:49:57.116Z,4.40
2022-11-16T19:53:07.094Z,3.70
2022-11-16T19:56:24.618Z,3.63
2022-11-16T19:59:03.728Z,3.28
2022-11-16T20:01:59.700Z,3.97
2022-11-16T20:04:58.507Z,3.42
2022-11-16T20:08:05.089Z,2.67
2022-11-16T20:10:51.030Z,3.70
2022-11-16T20:13:24.370Z,4.22
2022-11-16T20:19:20.177Z,3.65
2022-11-16T20:22:08.150Z,5.63
2022-11-16T20:25:03.753Z,3.88
2022-11-16T20:27:51.865Z,3.72
2022-11-16T20:30:39.303Z,2.55
2022-11-16T20:33:23.136Z,2.90
2022-11-16T20:36:06.780Z,2.63
2022-11-16T20:38:46.254Z,2.95
2022-11-16T20:41:43.049Z,3.45
2022-11-16T20:44:27.039Z,3.58
2022-11-16T20:47:14.073Z,3.00
2022-11-16T20:50:14.447Z,2.40
2022-11-16T20:52:54.805Z,3.03
2022-11-16T20:55:41.614Z,3.97
2022-11-16T20:58:47.174Z,3.42
2022-11-16T21:04:29.340Z,3.67
2022-11-16T21:07:27.907Z,3.35
2022-11-16T21:10:38.444Z,2.90
2022-11-16T21:13:42.023Z,3.40
2022-11-16T21:16:28.149Z,3.42
2022-11-16T21:19:13.512Z,2.67
2022-11-16T21:22:04.421Z,4.10
2022-11-16T21:24:40.977Z,3.63
2022-11-16T21:27:17.635Z,4.22
2022-11-16T21:29:55.575Z,3.08
2022-11-16T21:32:37.467Z,3.13
2022-11-16T21:35:20.049Z,3.63
2022-11-16T21:37:57.642Z,2.95
2022-11-16T21:40:57.763Z,2.58
2022-11-16T21:43:41.106Z,3.53
2022-11-16T21:52:12.925Z,2.70
2022-11-16T21:55:13.067Z,2.28
2022-11-16T21:57:54.086Z,2.75
2022-11-16T22:00:59.856Z,2.45
2022-11-16T22:03:37.111Z,3.60
2022-11-16T22:06:45.759Z,3.80
2022-11-16T22:09:40.952Z,2.60
2022-11-16T22:12:39.256Z,2.88
2022-11-16T22:15:57.833Z,2.92
2022-11-16T22:18:28.154Z,2.85
2022-11-16T22:21:06.763Z,3.63
2022-11-16T22:23:41.705Z,2.92
2022-11-16T22:26:17.363Z,2.97
2022-11-16T22:29:03.966Z,3.42
2022-11-16T22:31:42.276Z,2.88
2022-11-16T22:34:17.418Z,1.88
2022-11-16T22:37:01.946Z,3.55
2022-11-16T22:39:51.574Z,2.95
2022-11-16T22:42:39.070Z,1.85
2022-11-16T22:45:23.113Z,1.77
2022-11-16T22:48:13.905Z,2.45
2022-11-16T22:51:33.633Z,2.08
2022-11-16T22:54:11.591Z,2.63
2022-11-16T22:59:54.735Z,2.55
2022-11-16T23:02:36.241Z,2.13
2022-11-16T23:05:32.897Z,2.20
2022-11-16T23:08:00.382Z,2.92
2022-11-16T23:10:27.394Z,2.33
2022-11-16T23:13:12.904Z,2.97
2022-11-16T23:15:51.862Z,2.73
2022-11-16T23:18:19.731Z,2.25
2022-11-16T23:21:05.317Z,2.67
2022-11-16T23:23:51.347Z,3.92
2022-11-16T23:26:42.357Z,2.97
2022-11-16T23:29:10.627Z,2.42
2022-11-16T23:31:38.062Z,2.85
2022-11-16T23:34:05.362Z,2.60
2022-11-16T23:36:32.370Z,2.08
2022-11-16T23:39:00.310Z,3.80
2022-11-16T23:41:45.830Z,2.25
2022-11-16T23:44:13.643Z,2.70
2022-11-16T23:46:41.894Z,2.67
2022-11-16T23:49:10.103Z,2.25
2022-11-16T23:51:37.407Z,2.45
2022-11-16T23:54:04.929Z,2.35
2022-11-16T23:56:31.946Z,2.38
2022-11-16T23:58:58.909Z,1.98
